createdAt,value
2022-09-28T00:00:08.093Z,96852.00
2022-09-28T00:02:42.241Z,96846.00
2022-09-28T00:05:12.836Z,96841.00
2022-09-28T00:07:42.801Z,96849.00
2022-09-28T00:10:13.213Z,96849.00
2022-09-28T00:12:45.886Z,96849.00
2022-09-28T00:15:15.884Z,96849.00
2022-09-28T00:17:46.520Z,96854.00
2022-09-28T00:20:18.175Z,96841.00
2022-09-28T00:22:48.237Z,96837.00
2022-09-28T00:25:18.738Z,96825.00
2022-09-28T00:27:55.248Z,96820.00
2022-09-28T00:30:25.144Z,96815.00
2022-09-28T00:32:55.104Z,96820.00
2022-09-28T00:35:25.139Z,96811.00
2022-09-28T00:37:55.392Z,96815.00
2022-09-28T00:40:25.461Z,96813.00
2022-09-28T00:42:58.130Z,96799.00
2022-09-28T00:45:29.080Z,96796.00
2022-09-28T00:48:01.000Z,96803.00
2022-09-28T00:50:33.008Z,96801.00
2022-09-28T00:53:05.345Z,96803.00
2022-09-28T00:55:40.932Z,96807.00
2022-09-28T00:58:16.876Z,96798.00
2022-09-28T01:00:48.240Z,96802.00
2022-09-28T01:03:19.832Z,96796.00
2022-09-28T01:05:50.276Z,96791.00
2022-09-28T01:08:21.868Z,96795.00
2022-09-28T01:10:52.106Z,96792.00
2022-09-28T01:13:26.782Z,96800.00
2022-09-28T01:16:03.919Z,96795.00
2022-09-28T01:18:38.478Z,96797.00
2022-09-28T01:21:13.315Z,96793.00
2022-09-28T01:23:57.587Z,96784.00
2022-09-28T01:26:46.046Z,96786.00
2022-09-28T01:29:21.338Z,96782.00
2022-09-28T01:31:55.498Z,96791.00
2022-09-28T01:34:30.098Z,96779.00
2022-09-28T01:37:01.533Z,96791.00
2022-09-28T01:39:35.806Z,96788.00
2022-09-28T01:42:12.508Z,96786.00
2022-09-28T01:44:45.521Z,96785.00
2022-09-28T01:47:17.581Z,96795.00
2022-09-28T01:49:50.226Z,96786.00
2022-09-28T01:52:24.942Z,96788.00
2022-09-28T01:54:58.025Z,96789.00
2022-09-28T01:57:34.847Z,96792.00
2022-09-28T02:00:08.952Z,96787.00
2022-09-28T02:02:46.507Z,96776.00
2022-09-28T02:05:19.793Z,96780.00
2022-09-28T02:07:54.661Z,96772.00
2022-09-28T02:10:27.285Z,96776.00
2022-09-28T02:13:03.056Z,96793.00
2022-09-28T02:15:38.373Z,96793.00
2022-09-28T02:18:08.757Z,96800.00
2022-09-28T02:20:41.933Z,96803.00
2022-09-28T02:23:12.730Z,96811.00
2022-09-28T02:25:49.866Z,96805.00
2022-09-28T02:28:24.729Z,96802.00
2022-09-28T02:30:54.766Z,96800.00
2022-09-28T02:33:28.520Z,96787.00
2022-09-28T02:35:58.818Z,96785.00
2022-09-28T02:38:29.536Z,96793.00
2022-09-28T02:41:07.200Z,96786.00
2022-09-28T02:43:47.329Z,96789.00
2022-09-28T02:46:24.090Z,96796.00
2022-09-28T02:49:21.762Z,96797.00
2022-09-28T02:52:08.041Z,96801.00
2022-09-28T02:55:09.884Z,96805.00
2022-09-28T02:57:49.275Z,96790.00
2022-09-28T03:00:23.787Z,96807.00
2022-09-28T03:03:02.249Z,96796.00
2022-09-28T03:05:40.916Z,96796.00
2022-09-28T03:08:16.354Z,96792.00
2022-09-28T03:10:50.055Z,96799.00
2022-09-28T03:13:21.092Z,96790.00
2022-09-28T03:15:53.951Z,96788.00
2022-09-28T03:18:24.226Z,96786.00
2022-09-28T03:20:54.146Z,96792.00
2022-09-28T03:23:25.427Z,96794.00
2022-09-28T03:25:56.322Z,96792.00
2022-09-28T03:28:26.659Z,96776.00
2022-09-28T03:30:59.618Z,96777.00
2022-09-28T03:33:29.522Z,96778.00
2022-09-28T03:35:59.497Z,96767.00
2022-09-28T03:38:29.532Z,96768.00
2022-09-28T03:41:00.663Z,96764.00
2022-09-28T03:43:36.575Z,96764.00
2022-09-28T03:46:10.079Z,96760.00
2022-09-28T03:48:45.183Z,96757.00
2022-09-28T03:51:15.911Z,96767.00
2022-09-28T03:53:45.854Z,96757.00
2022-09-28T03:56:17.624Z,96768.00
2022-09-28T03:58:47.557Z,96756.00
2022-09-28T04:01:21.760Z,96762.00
2022-09-28T04:03:56.705Z,96763.00
2022-09-28T04:06:27.707Z,96761.00
2022-09-28T04:08:57.872Z,96766.00
2022-09-28T04:11:38.555Z,96758.00
2022-09-28T04:14:18.716Z,96766.00
2022-09-28T04:16:54.424Z,96771.00
2022-09-28T04:19:26.997Z,96771.00
2022-09-28T04:22:15.667Z,96764.00
2022-09-28T04:24:46.630Z,96768.00
2022-09-28T04:27:29.041Z,96770.00
2022-09-28T04:29:58.935Z,96758.00
2022-09-28T04:32:31.550Z,96761.00
2022-09-28T04:35:01.884Z,96751.00
2022-09-28T04:37:32.033Z,96751.00
2022-09-28T04:40:02.040Z,96755.00
2022-09-28T04:42:33.044Z,96759.00
2022-09-28T04:45:04.995Z,96759.00
2022-09-28T04:47:40.860Z,96749.00
2022-09-28T04:50:26.641Z,96750.00
2022-09-28T04:53:15.223Z,96744.00
2022-09-28T04:55:45.265Z,96756.00
2022-09-28T04:58:15.202Z,96748.00
2022-09-28T05:00:45.178Z,96754.00
2022-09-28T05:03:34.652Z,96750.00
2022-09-28T05:06:19.156Z,96757.00
2022-09-28T05:08:50.809Z,96744.00
2022-09-28T05:11:21.793Z,96752.00
2022-09-28T05:13:51.800Z,96754.00
2022-09-28T05:16:22.887Z,96760.00
2022-09-28T05:19:24.360Z,96744.00
2022-09-28T05:21:58.089Z,96752.00
2022-09-28T05:24:28.364Z,96736.00
2022-09-28T05:26:58.283Z,96746.00
2022-09-28T05:29:32.079Z,96757.00
2022-09-28T05:32:21.049Z,96760.00
2022-09-28T05:35:13.589Z,96759.00
2022-09-28T05:37:47.882Z,96752.00
2022-09-28T05:40:18.938Z,96762.00
2022-09-28T05:42:48.967Z,96755.00
2022-09-28T05:45:19.136Z,96749.00
2022-09-28T05:47:49.207Z,96749.00
2022-09-28T05:50:24.689Z,96736.00
2022-09-28T05:53:02.046Z,96735.00
2022-09-28T05:55:32.496Z,96744.00
2022-09-28T05:58:02.811Z,96755.00
2022-09-28T06:00:33.486Z,96749.00
2022-09-28T06:03:08.883Z,96734.00
2022-09-28T06:05:42.496Z,96736.00
2022-09-28T06:08:13.248Z,96732.00
2022-09-28T06:10:47.782Z,96734.00
2022-09-28T06:13:17.913Z,96733.00
2022-09-28T06:15:47.955Z,96731.00
2022-09-28T06:18:18.070Z,96721.00
2022-09-28T06:21:10.982Z,96720.00
2022-09-28T06:23:48.947Z,96720.00
2022-09-28T06:26:20.895Z,96714.00
2022-09-28T06:28:51.646Z,96719.00
2022-09-28T06:31:23.933Z,96719.00
2022-09-28T06:33:54.452Z,96716.00
2022-09-28T06:36:27.141Z,96724.00
2022-09-28T06:38:57.217Z,96728.00
2022-09-28T06:41:27.853Z,96729.00
2022-09-28T06:44:02.227Z,96715.00
2022-09-28T06:46:51.033Z,96723.00
2022-09-28T06:49:22.307Z,96722.00
2022-09-28T06:52:33.434Z,96722.00
2022-09-28T06:55:09.412Z,96713.00
2022-09-28T06:57:47.257Z,96721.00
2022-09-28T07:00:18.889Z,96703.00
2022-09-28T07:02:50.237Z,96706.00
2022-09-28T07:05:44.748Z,96706.00
2022-09-28T07:08:54.562Z,96704.00
2022-09-28T07:12:03.334Z,96701.00
2022-09-28T07:14:50.625Z,96704.00
2022-09-28T07:17:20.829Z,96702.00
2022-09-28T07:19:52.963Z,96702.00
2022-09-28T07:22:36.855Z,96710.00
2022-09-28T07:25:14.435Z,96706.00
2022-09-28T07:27:47.506Z,96713.00
2022-09-28T07:30:21.159Z,96698.00
2022-09-28T07:33:25.308Z,96697.00
2022-09-28T07:42:09.532Z,96680.00
2022-09-28T07:44:41.162Z,96681.00
2022-09-28T07:47:11.337Z,96685.00
2022-09-28T07:50:04.554Z,96679.00
2022-09-28T07:52:52.218Z,96685.00
2022-09-28T07:55:34.067Z,96673.00
2022-09-28T18:58:45.218Z,96787.00
2022-09-28T19:01:29.840Z,96784.00
2022-09-28T19:04:02.543Z,96798.00
2022-09-28T19:06:32.885Z,96805.00
2022-09-28T19:09:03.146Z,96802.00
2022-09-28T19:11:33.024Z,96808.00
2022-09-28T19:14:06.061Z,96809.00
2022-09-28T19:16:36.572Z,96807.00
2022-09-28T19:19:06.763Z,96822.00
2022-09-28T19:21:37.051Z,96829.00
2022-09-28T19:24:07.616Z,96827.00
2022-09-28T19:26:37.568Z,96818.00
2022-09-28T19:29:10.210Z,96832.00
2022-09-28T19:31:40.826Z,96841.00
2022-09-28T19:34:13.437Z,96832.00
2022-09-28T19:36:44.820Z,96833.00
2022-09-28T19:39:16.897Z,96829.00
2022-09-28T19:41:51.257Z,96828.00
2022-09-28T19:44:27.863Z,96823.00
2022-09-28T19:46:58.929Z,96831.00
2022-09-28T19:49:33.157Z,96833.00
2022-09-28T19:52:18.969Z,96833.00
2022-09-28T19:54:55.876Z,96845.00
2022-09-28T19:57:26.728Z,96849.00
2022-09-28T20:00:03.183Z,96847.00
2022-09-28T20:02:36.628Z,96847.00
2022-09-28T20:05:09.869Z,96838.00
2022-09-28T20:07:39.946Z,96834.00
2022-09-28T20:10:10.349Z,96842.00
2022-09-28T20:12:42.323Z,96851.00
2022-09-28T20:15:16.701Z,96844.00
2022-09-28T20:17:46.537Z,96845.00
2022-09-28T20:20:16.750Z,96856.00
2022-09-28T20:22:46.593Z,96868.00
2022-09-28T20:25:16.498Z,96865.00
2022-09-28T20:27:46.365Z,96873.00
2022-09-28T20:30:21.610Z,96875.00
2022-09-28T20:32:51.541Z,96876.00
2022-09-28T20:35:30.600Z,96879.00
2022-09-28T20:38:08.151Z,96887.00
2022-09-28T20:40:38.230Z,96882.00
2022-09-28T20:43:09.294Z,96893.00
2022-09-28T20:45:41.732Z,96901.00
2022-09-28T20:48:11.581Z,96904.00
2022-09-28T20:50:41.396Z,96897.00
2022-09-28T20:53:11.230Z,96893.00
2022-09-28T20:55:41.097Z,96897.00
2022-09-28T20:58:10.936Z,96895.00
2022-09-28T21:00:43.378Z,96905.00
2022-09-28T21:03:13.326Z,96900.00
2022-09-28T21:05:43.327Z,96903.00
2022-09-28T21:08:13.226Z,96905.00
2022-09-28T21:10:46.480Z,96901.00
2022-09-28T21:13:16.627Z,96898.00
2022-09-28T21:15:49.127Z,96901.00
2022-09-28T21:18:19.278Z,96900.00
2022-09-28T21:20:49.978Z,96896.00
2022-09-28T21:23:24.715Z,96889.00
2022-09-28T21:26:04.292Z,96902.00
2022-09-28T21:28:34.489Z,96909.00
2022-09-28T21:31:08.767Z,96910.00
2022-09-28T21:33:38.865Z,96913.00
2022-09-28T21:36:10.762Z,96916.00
2022-09-28T21:38:40.626Z,96915.00
2022-09-28T21:41:10.477Z,96933.00
2022-09-28T21:43:40.437Z,96921.00
2022-09-28T21:46:13.125Z,96926.00
2022-09-28T21:48:43.788Z,96931.00
2022-09-28T21:51:16.429Z,96926.00
2022-09-28T21:53:46.260Z,96925.00
2022-09-28T21:56:16.085Z,96920.00
2022-09-28T21:58:45.964Z,96920.00
2022-09-28T22:01:20.004Z,96922.00
2022-09-28T22:03:51.748Z,96916.00
2022-09-28T22:06:23.039Z,96931.00
2022-09-28T22:08:53.422Z,96926.00
2022-09-28T22:11:24.812Z,96942.00
2022-09-28T22:13:56.360Z,96943.00
2022-09-28T22:16:30.492Z,96948.00
2022-09-28T22:19:00.723Z,96941.00
2022-09-28T22:21:32.041Z,96935.00
2022-09-28T22:24:03.676Z,96948.00
2022-09-28T22:26:35.478Z,96953.00
2022-09-28T22:29:07.738Z,96950.00
2022-09-28T22:31:41.445Z,96954.00
2022-09-28T22:34:12.633Z,96948.00
2022-09-28T22:36:42.592Z,96948.00
2022-09-28T22:39:12.649Z,96959.00
2022-09-28T22:41:42.489Z,96955.00
2022-09-28T22:44:12.322Z,96962.00
2022-09-28T22:46:44.904Z,96954.00
2022-09-28T22:49:15.533Z,96960.00
2022-09-28T22:51:45.354Z,96966.00
2022-09-28T22:54:16.519Z,96958.00
2022-09-28T22:56:46.987Z,96955.00
2022-09-28T22:59:16.922Z,96968.00
2022-09-28T23:01:49.518Z,96972.00
2022-09-28T23:04:19.346Z,96969.00
2022-09-28T23:06:49.168Z,96966.00
2022-09-28T23:09:19.268Z,96966.00
2022-09-28T23:11:49.125Z,96962.00
2022-09-28T23:14:19.269Z,96972.00
2022-09-28T23:16:51.757Z,96965.00
2022-09-28T23:19:21.566Z,96960.00
2022-09-28T23:21:51.466Z,96964.00
2022-09-28T23:24:21.402Z,96962.00
2022-09-28T23:26:51.509Z,96964.00
2022-09-28T23:29:21.378Z,96975.00
2022-09-28T23:31:53.973Z,96975.00
2022-09-28T23:34:23.823Z,96985.00
2022-09-28T23:36:55.111Z,96990.00
2022-09-28T23:39:24.934Z,96993.00
2022-09-28T23:41:54.751Z,96992.00
2022-09-28T23:44:24.590Z,96989.00
2022-09-28T23:46:57.584Z,96985.00
2022-09-28T23:49:27.432Z,96977.00
2022-09-28T23:51:57.253Z,96971.00
2022-09-28T23:54:27.065Z,96950.00
2022-09-28T23:56:56.899Z,96964.00
2022-09-28T23:59:26.813Z,96963.00
